EZY340 EGKK-LJLJ
Flight info
| Callsign | EZY340 |
|---|---|
| Flight time | 1h 50m |
| Altitude | 39000 |
| Route | MIMFO Y312 DVR UL9 KONAN DCT KOK DCT REMBA DCT RITAX DCT PITES DCT BABEG DCT KUMOM DCT LUMUS LUMUS4L |
| Aircraft | A20N/M-SDE2E3FGHIRWXY/LB1 |
Departure
| Time | 2026-05-04 08:25 |
|---|---|
| Airport | London Gatwick Airport (EGKK) |
Arrival
| Time | 2026-05-04 10:16 |
|---|---|
| Airport | Ljubljana Jože Pučnik Airport (LJLJ) |
| Time | Latitude | Longitude | Altitude | Speed | Heading |
|---|---|---|---|---|---|
| 2026-05-04 07:35 | 51.15642 | -0.17854 | 211 ft | 0 kts | 168° |
| 2026-05-04 08:14 | 51.15644 | -0.17855 | 208 ft | 2 kts | 168° |
| 2026-05-04 08:14 | 51.15668 | -0.17865 | 214 ft | 4 kts | 158° |
| 2026-05-04 08:16 | 51.15704 | -0.17932 | 216 ft | 0 kts | 78° |
| 2026-05-04 08:19 | 51.15730 | -0.17744 | 208 ft | 9 kts | 78° |
| 2026-05-04 08:19 | 51.15742 | -0.17651 | 211 ft | 8 kts | 77° |
| 2026-05-04 08:20 | 51.15754 | -0.17561 | 212 ft | 8 kts | 84° |
| 2026-05-04 08:20 | 51.15723 | -0.17506 | 210 ft | 7 kts | 163° |
| 2026-05-04 08:20 | 51.15677 | -0.17488 | 216 ft | 7 kts | 167° |
| 2026-05-04 08:20 | 51.15630 | -0.17471 | 215 ft | 8 kts | 168° |
| 2026-05-04 08:21 | 51.15570 | -0.17451 | 216 ft | 10 kts | 168° |
| 2026-05-04 08:21 | 51.15498 | -0.17427 | 214 ft | 11 kts | 168° |
| 2026-05-04 08:21 | 51.15420 | -0.17400 | 212 ft | 11 kts | 167° |
| 2026-05-04 08:21 | 51.15341 | -0.17373 | 212 ft | 12 kts | 168° |
| 2026-05-04 08:22 | 51.15258 | -0.17332 | 216 ft | 12 kts | 143° |
| 2026-05-04 08:22 | 51.15247 | -0.17231 | 214 ft | 8 kts | 74° |
| 2026-05-04 08:24 | 51.15160 | -0.16794 | 219 ft | 9 kts | 188° |
| 2026-05-04 08:24 | 51.15117 | -0.16857 | 214 ft | 8 kts | 252° |
| 2026-05-04 08:24 | 51.15114 | -0.16871 | 214 ft | 0 kts | 255° |
| 2026-05-04 08:24 | 51.15112 | -0.16883 | 219 ft | 13 kts | 255° |
| 2026-05-04 08:25 | 51.15040 | -0.17403 | 219 ft | 81 kts | 258° |
| 2026-05-04 08:25 | 51.14875 | -0.18608 | 213 ft | 141 kts | 258° |
| 2026-05-04 08:25 | 51.14625 | -0.20311 | 389 ft | 170 kts | 258° |
| 2026-05-04 08:25 | 51.14363 | -0.22184 | 872 ft | 170 kts | 258° |
| 2026-05-04 08:26 | 51.14114 | -0.23995 | 1585 ft | 172 kts | 258° |
| 2026-05-04 08:27 | 51.19427 | -0.28952 | 4025 ft | 229 kts | 72° |
| 2026-05-04 08:28 | 51.19817 | -0.26483 | 4021 ft | 230 kts | 78° |
| 2026-05-04 08:28 | 51.20125 | -0.23970 | 4020 ft | 231 kts | 79° |
| 2026-05-04 08:28 | 51.20429 | -0.21452 | 4021 ft | 231 kts | 79° |
| 2026-05-04 08:28 | 51.20741 | -0.18877 | 4026 ft | 248 kts | 79° |
| 2026-05-04 08:29 | 51.21084 | -0.16091 | 4017 ft | 261 kts | 78° |
| 2026-05-04 08:29 | 51.21440 | -0.13231 | 4195 ft | 266 kts | 78° |
| 2026-05-04 08:29 | 51.21805 | -0.10313 | 4756 ft | 268 kts | 79° |
| 2026-05-04 08:31 | 51.24358 | 0.10132 | 5000 ft | 269 kts | 79° |
| 2026-05-04 08:33 | 51.24683 | 0.30937 | 5992 ft | 273 kts | 98° |
| 2026-05-04 08:33 | 51.24450 | 0.33949 | 5991 ft | 274 kts | 97° |
| 2026-05-04 08:35 | 51.22823 | 0.55038 | 6949 ft | 279 kts | 98° |
| 2026-05-04 08:35 | 51.22583 | 0.58120 | 7916 ft | 281 kts | 98° |
| 2026-05-04 08:35 | 51.22339 | 0.61236 | 8855 ft | 285 kts | 98° |
| 2026-05-04 08:35 | 51.22091 | 0.64402 | 9770 ft | 291 kts | 98° |
| 2026-05-04 08:37 | 51.20317 | 0.86734 | 13667 ft | 367 kts | 98° |
| 2026-05-04 08:37 | 51.19991 | 0.90797 | 14451 ft | 372 kts | 99° |
| 2026-05-04 08:37 | 51.19659 | 0.94916 | 15231 ft | 377 kts | 99° |
| 2026-05-04 08:38 | 51.19320 | 0.99090 | 15975 ft | 382 kts | 99° |
| 2026-05-04 08:38 | 51.18976 | 1.03309 | 16735 ft | 386 kts | 99° |
| 2026-05-04 08:38 | 51.18625 | 1.07579 | 17489 ft | 391 kts | 99° |
| 2026-05-04 08:40 | 51.16077 | 1.38815 | 21986 ft | 421 kts | 98° |
| 2026-05-04 08:40 | 51.15822 | 1.43483 | 22561 ft | 426 kts | 97° |
| 2026-05-04 08:40 | 51.15602 | 1.48235 | 23018 ft | 433 kts | 96° |
| 2026-05-04 08:41 | 51.15392 | 1.53046 | 23551 ft | 438 kts | 96° |
| 2026-05-04 08:41 | 51.15179 | 1.57903 | 24030 ft | 441 kts | 97° |
| 2026-05-04 08:41 | 51.14957 | 1.62784 | 24527 ft | 443 kts | 97° |
| 2026-05-04 08:41 | 51.14724 | 1.67692 | 25017 ft | 445 kts | 97° |
| 2026-05-04 08:42 | 51.14483 | 1.72616 | 25490 ft | 448 kts | 98° |
| 2026-05-04 08:42 | 51.14235 | 1.77575 | 25951 ft | 450 kts | 98° |
| 2026-05-04 08:42 | 51.13982 | 1.82562 | 26406 ft | 453 kts | 98° |
| 2026-05-04 08:42 | 51.13725 | 1.87563 | 26852 ft | 455 kts | 99° |
| 2026-05-04 08:43 | 51.13463 | 1.92605 | 27251 ft | 459 kts | 99° |
| 2026-05-04 08:43 | 51.13197 | 1.97684 | 27629 ft | 462 kts | 99° |
| 2026-05-04 08:43 | 51.12928 | 2.02799 | 28067 ft | 464 kts | 99° |
| 2026-05-04 08:43 | 51.12656 | 2.07935 | 28482 ft | 466 kts | 100° |
| 2026-05-04 08:44 | 51.12380 | 2.13089 | 28895 ft | 469 kts | 100° |
| 2026-05-04 08:44 | 51.12102 | 2.18263 | 29292 ft | 471 kts | 100° |
| 2026-05-04 08:46 | 51.10139 | 2.53619 | 32243 ft | 469 kts | 101° |
| 2026-05-04 08:46 | 51.09845 | 2.58781 | 32731 ft | 468 kts | 101° |
| 2026-05-04 08:46 | 51.09460 | 2.63917 | 33134 ft | 464 kts | 106° |
| 2026-05-04 08:46 | 51.08751 | 2.68891 | 33490 ft | 460 kts | 110° |
| 2026-05-04 08:47 | 51.07940 | 2.73804 | 33848 ft | 459 kts | 111° |
| 2026-05-04 08:47 | 51.07079 | 2.78689 | 34171 ft | 458 kts | 112° |
| 2026-05-04 08:47 | 51.06195 | 2.83547 | 34469 ft | 457 kts | 112° |
| 2026-05-04 08:47 | 51.05298 | 2.88405 | 34638 ft | 459 kts | 112° |
| 2026-05-04 08:48 | 51.04393 | 2.93285 | 34822 ft | 461 kts | 112° |
| 2026-05-04 08:48 | 51.03491 | 2.98164 | 35117 ft | 460 kts | 112° |
| 2026-05-04 08:48 | 51.02592 | 3.03038 | 35420 ft | 459 kts | 111° |
| 2026-05-04 08:48 | 51.01697 | 3.07898 | 35713 ft | 458 kts | 111° |
| 2026-05-04 08:49 | 51.00803 | 3.12748 | 35982 ft | 458 kts | 111° |
| 2026-05-04 08:50 | 50.95406 | 3.41768 | 37380 ft | 456 kts | 111° |
| 2026-05-04 08:50 | 50.94504 | 3.46575 | 37642 ft | 455 kts | 110° |
| 2026-05-04 08:51 | 50.93602 | 3.51372 | 37908 ft | 454 kts | 110° |
| 2026-05-04 08:51 | 50.92698 | 3.56164 | 38138 ft | 453 kts | 110° |
| 2026-05-04 08:51 | 50.91795 | 3.60939 | 38352 ft | 452 kts | 110° |
| 2026-05-04 08:51 | 50.90890 | 3.65709 | 38565 ft | 452 kts | 110° |
| 2026-05-04 08:52 | 50.89985 | 3.70472 | 38746 ft | 452 kts | 110° |
| 2026-05-04 08:52 | 50.89088 | 3.75174 | 38886 ft | 452 kts | 110° |
| 2026-05-04 08:52 | 50.87260 | 3.84725 | 38984 ft | 454 kts | 110° |
| 2026-05-04 08:54 | 50.79885 | 4.22803 | 38981 ft | 452 kts | 111° |
| 2026-05-04 08:55 | 50.78027 | 4.32281 | 38991 ft | 451 kts | 111° |
| 2026-05-04 08:55 | 50.76164 | 4.41733 | 38992 ft | 450 kts | 111° |
| 2026-05-04 09:01 | 50.43626 | 5.26296 | 38994 ft | 432 kts | 140° |
| 2026-05-04 09:01 | 50.39328 | 5.32884 | 38992 ft | 432 kts | 140° |
| 2026-05-04 09:02 | 50.35024 | 5.39462 | 38996 ft | 432 kts | 140° |
| 2026-05-04 09:02 | 50.31445 | 5.44919 | 38993 ft | 432 kts | 140° |
| 2026-05-04 09:03 | 50.27131 | 5.51478 | 38984 ft | 433 kts | 140° |
| 2026-05-04 09:03 | 50.22801 | 5.58041 | 39001 ft | 435 kts | 140° |
| 2026-05-04 09:04 | 50.18456 | 5.64611 | 39002 ft | 435 kts | 140° |
| 2026-05-04 09:04 | 50.14104 | 5.71176 | 39003 ft | 435 kts | 140° |
| 2026-05-04 09:05 | 50.09749 | 5.77728 | 39001 ft | 435 kts | 141° |
| 2026-05-04 09:05 | 50.05757 | 5.84886 | 39007 ft | 440 kts | 133° |
| 2026-05-04 09:06 | 50.02024 | 5.92449 | 39003 ft | 443 kts | 131° |
| 2026-05-04 09:08 | 49.87058 | 6.23203 | 39017 ft | 447 kts | 131° |
| 2026-05-04 09:08 | 49.83289 | 6.30860 | 39016 ft | 447 kts | 131° |
| 2026-05-04 09:09 | 49.79516 | 6.38506 | 39017 ft | 447 kts | 132° |
| 2026-05-04 09:09 | 49.75746 | 6.46125 | 39018 ft | 446 kts | 132° |
| 2026-05-04 09:10 | 49.72277 | 6.54091 | 39018 ft | 450 kts | 123° |
| 2026-05-04 09:10 | 49.69399 | 6.62712 | 39013 ft | 452 kts | 120° |
| 2026-05-04 09:11 | 49.66640 | 6.71452 | 39013 ft | 453 kts | 120° |
| 2026-05-04 09:11 | 49.63886 | 6.80196 | 39011 ft | 453 kts | 120° |
| 2026-05-04 09:12 | 49.61117 | 6.88905 | 39009 ft | 452 kts | 120° |
| 2026-05-04 09:14 | 49.49930 | 7.23609 | 39014 ft | 452 kts | 121° |
| 2026-05-04 09:14 | 49.47115 | 7.32266 | 39017 ft | 453 kts | 121° |
| 2026-05-04 09:15 | 49.44290 | 7.40925 | 39016 ft | 453 kts | 121° |
| 2026-05-04 09:15 | 49.41460 | 7.49571 | 39015 ft | 453 kts | 121° |
| 2026-05-04 09:17 | 49.28654 | 7.88324 | 39014 ft | 453 kts | 121° |
| 2026-05-04 09:18 | 49.25788 | 7.96916 | 39018 ft | 453 kts | 121° |
| 2026-05-04 09:18 | 49.22917 | 8.05496 | 39017 ft | 453 kts | 121° |
| 2026-05-04 09:19 | 49.20042 | 8.14056 | 39018 ft | 452 kts | 121° |
| 2026-05-04 09:19 | 49.17165 | 8.22594 | 39017 ft | 452 kts | 121° |
| 2026-05-04 09:20 | 49.14279 | 8.31130 | 39018 ft | 452 kts | 121° |
| 2026-05-04 09:20 | 49.11387 | 8.39656 | 39018 ft | 452 kts | 121° |
| 2026-05-04 09:21 | 49.08490 | 8.48168 | 39020 ft | 452 kts | 122° |
| 2026-05-04 09:21 | 49.05585 | 8.56676 | 39021 ft | 452 kts | 122° |
| 2026-05-04 09:22 | 49.02676 | 8.65167 | 39020 ft | 452 kts | 122° |
| 2026-05-04 09:22 | 48.99763 | 8.73641 | 39020 ft | 452 kts | 122° |
| 2026-05-04 09:23 | 48.96843 | 8.82108 | 39010 ft | 452 kts | 122° |
| 2026-05-04 09:23 | 48.93915 | 8.90567 | 39010 ft | 452 kts | 122° |
| 2026-05-04 09:25 | 48.82142 | 9.24317 | 39020 ft | 452 kts | 121° |
| 2026-05-04 09:26 | 48.79190 | 9.32711 | 39022 ft | 451 kts | 122° |
| 2026-05-04 09:26 | 48.76229 | 9.41103 | 39015 ft | 451 kts | 122° |
| 2026-05-04 09:27 | 48.73264 | 9.49478 | 39022 ft | 451 kts | 122° |
| 2026-05-04 09:27 | 48.70296 | 9.57838 | 39028 ft | 451 kts | 122° |
| 2026-05-04 09:28 | 48.67312 | 9.66197 | 39025 ft | 451 kts | 122° |
| 2026-05-04 09:28 | 48.64183 | 9.74397 | 39025 ft | 450 kts | 124° |
| 2026-05-04 09:29 | 48.60963 | 9.82509 | 39034 ft | 450 kts | 124° |
| 2026-05-04 09:29 | 48.57741 | 9.90608 | 39035 ft | 450 kts | 124° |
| 2026-05-04 09:30 | 48.54528 | 9.98709 | 39043 ft | 450 kts | 124° |
| 2026-05-04 09:30 | 48.51316 | 10.06807 | 39044 ft | 450 kts | 124° |
| 2026-05-04 09:31 | 48.48119 | 10.14845 | 39043 ft | 450 kts | 124° |
| 2026-05-04 09:31 | 48.44896 | 10.22926 | 39040 ft | 450 kts | 124° |
| 2026-05-04 09:32 | 48.41667 | 10.30995 | 39041 ft | 450 kts | 124° |
| 2026-05-04 09:34 | 48.28702 | 10.63145 | 39045 ft | 449 kts | 124° |
| 2026-05-04 09:34 | 48.25448 | 10.71152 | 39047 ft | 449 kts | 124° |
| 2026-05-04 09:35 | 48.22187 | 10.79155 | 39043 ft | 449 kts | 124° |
| 2026-05-04 09:35 | 48.18923 | 10.87142 | 39047 ft | 449 kts | 124° |
| 2026-05-04 09:37 | 48.05818 | 11.18967 | 39037 ft | 450 kts | 124° |
| 2026-05-04 09:38 | 48.02519 | 11.26921 | 39048 ft | 451 kts | 124° |
| 2026-05-04 09:38 | 47.99212 | 11.34871 | 39046 ft | 451 kts | 124° |
| 2026-05-04 09:39 | 47.95897 | 11.42816 | 39041 ft | 451 kts | 124° |
| 2026-05-04 09:39 | 47.92580 | 11.50744 | 39024 ft | 451 kts | 124° |
| 2026-05-04 09:40 | 47.89257 | 11.58660 | 39033 ft | 451 kts | 124° |
| 2026-05-04 09:40 | 47.85925 | 11.66578 | 39023 ft | 451 kts | 124° |
| 2026-05-04 09:42 | 47.72562 | 11.98093 | 39022 ft | 449 kts | 124° |
| 2026-05-04 09:43 | 47.69221 | 12.05917 | 39024 ft | 449 kts | 124° |
| 2026-05-04 09:43 | 47.65872 | 12.13738 | 39026 ft | 449 kts | 124° |
| 2026-05-04 09:44 | 47.62517 | 12.21549 | 39024 ft | 449 kts | 124° |
| 2026-05-04 09:46 | 47.48781 | 12.50454 | 39021 ft | 448 kts | 130° |
| 2026-05-04 09:46 | 47.44953 | 12.57712 | 39024 ft | 447 kts | 130° |
| 2026-05-04 09:47 | 47.41115 | 12.64962 | 39029 ft | 448 kts | 130° |
| 2026-05-04 09:49 | 47.25734 | 12.93822 | 39046 ft | 449 kts | 130° |
| 2026-05-04 09:51 | 47.12189 | 13.18988 | 37613 ft | 449 kts | 130° |
| 2026-05-04 09:51 | 47.10241 | 13.22587 | 36965 ft | 451 kts | 130° |
| 2026-05-04 09:51 | 47.08285 | 13.26196 | 36313 ft | 453 kts | 130° |
| 2026-05-04 09:51 | 47.06315 | 13.29827 | 35632 ft | 456 kts | 130° |
| 2026-05-04 09:52 | 47.04337 | 13.33467 | 34934 ft | 458 kts | 130° |
| 2026-05-04 09:52 | 47.02343 | 13.37134 | 34220 ft | 461 kts | 130° |
| 2026-05-04 09:52 | 47.00335 | 13.40821 | 33412 ft | 464 kts | 130° |
| 2026-05-04 09:52 | 46.98317 | 13.44521 | 32633 ft | 466 kts | 130° |
| 2026-05-04 09:53 | 46.96287 | 13.48237 | 31826 ft | 469 kts | 130° |
| 2026-05-04 09:53 | 46.94238 | 13.51985 | 30997 ft | 472 kts | 130° |
| 2026-05-04 09:53 | 46.92205 | 13.55697 | 30156 ft | 476 kts | 130° |
| 2026-05-04 09:53 | 46.90124 | 13.59492 | 29146 ft | 480 kts | 130° |
| 2026-05-04 09:54 | 46.88031 | 13.63304 | 28199 ft | 482 kts | 129° |
| 2026-05-04 09:54 | 46.85927 | 13.67131 | 27276 ft | 484 kts | 130° |
| 2026-05-04 09:54 | 46.83829 | 13.70941 | 26626 ft | 479 kts | 130° |
| 2026-05-04 09:54 | 46.81752 | 13.74710 | 25960 ft | 475 kts | 130° |
| 2026-05-04 09:55 | 46.79683 | 13.78456 | 25253 ft | 473 kts | 130° |
| 2026-05-04 09:55 | 46.77624 | 13.82181 | 24564 ft | 470 kts | 130° |
| 2026-05-04 09:55 | 46.75577 | 13.85880 | 23843 ft | 468 kts | 130° |
| 2026-05-04 09:55 | 46.73552 | 13.89532 | 23312 ft | 458 kts | 130° |
| 2026-05-04 09:56 | 46.71568 | 13.93108 | 22426 ft | 448 kts | 130° |
| 2026-05-04 09:56 | 46.69641 | 13.96578 | 21703 ft | 434 kts | 130° |
| 2026-05-04 09:56 | 46.67770 | 13.99941 | 21042 ft | 420 kts | 131° |
| 2026-05-04 09:56 | 46.65959 | 14.03192 | 20391 ft | 408 kts | 131° |
| 2026-05-04 09:57 | 46.64198 | 14.06351 | 19773 ft | 397 kts | 131° |
| 2026-05-04 09:57 | 46.62473 | 14.09440 | 19157 ft | 391 kts | 131° |
| 2026-05-04 09:57 | 46.60753 | 14.12512 | 18525 ft | 391 kts | 132° |
| 2026-05-04 09:57 | 46.58874 | 14.15346 | 17867 ft | 387 kts | 143° |
| 2026-05-04 09:58 | 46.56653 | 14.17486 | 17275 ft | 381 kts | 152° |
| 2026-05-04 09:58 | 46.54341 | 14.19327 | 16682 ft | 378 kts | 154° |
| 2026-05-04 09:58 | 46.52021 | 14.21111 | 16072 ft | 376 kts | 154° |
| 2026-05-04 10:00 | 46.36321 | 14.33232 | 11926 ft | 355 kts | 154° |
| 2026-05-04 10:00 | 46.34147 | 14.34911 | 11376 ft | 353 kts | 154° |
| 2026-05-04 10:02 | 46.21090 | 14.48167 | 8604 ft | 294 kts | 128° |
| 2026-05-04 10:04 | 46.11725 | 14.61950 | 5421 ft | 266 kts | 188° |
| 2026-05-04 10:04 | 46.09999 | 14.61197 | 5070 ft | 257 kts | 214° |
| 2026-05-04 10:04 | 46.08751 | 14.59501 | 4893 ft | 239 kts | 238° |
| 2026-05-04 10:04 | 46.08140 | 14.57380 | 4740 ft | 222 kts | 259° |
| 2026-05-04 10:05 | 46.08131 | 14.55266 | 4611 ft | 203 kts | 279° |
| 2026-05-04 10:05 | 46.08601 | 14.53434 | 4437 ft | 190 kts | 297° |
| 2026-05-04 10:05 | 46.09423 | 14.51973 | 4124 ft | 187 kts | 315° |
| 2026-05-04 10:05 | 46.10502 | 14.51005 | 3985 ft | 179 kts | 334° |
| 2026-05-04 10:06 | 46.11667 | 14.50596 | 3927 ft | 170 kts | 350° |
| 2026-05-04 10:06 | 46.12851 | 14.50699 | 3910 ft | 169 kts | 8° |
| 2026-05-04 10:06 | 46.13925 | 14.51267 | 3809 ft | 162 kts | 24° |
| 2026-05-04 10:08 | 46.18160 | 14.51436 | 3294 ft | 173 kts | 267° |
| 2026-05-04 10:08 | 46.17732 | 14.49831 | 4096 ft | 178 kts | 230° |
| 2026-05-04 10:08 | 46.16734 | 14.48776 | 5024 ft | 180 kts | 212° |
| 2026-05-04 10:08 | 46.15602 | 14.47993 | 5662 ft | 185 kts | 201° |
| 2026-05-04 10:09 | 46.14303 | 14.48048 | 5949 ft | 195 kts | 164° |
| 2026-05-04 10:09 | 46.13151 | 14.49133 | 5703 ft | 203 kts | 142° |
| 2026-05-04 10:09 | 46.12135 | 14.50583 | 5380 ft | 207 kts | 138° |
| 2026-05-04 10:09 | 46.11150 | 14.52093 | 5025 ft | 208 kts | 133° |
| 2026-05-04 10:10 | 46.10304 | 14.53800 | 4717 ft | 210 kts | 128° |
| 2026-05-04 10:10 | 46.09475 | 14.55520 | 4420 ft | 209 kts | 125° |
| 2026-05-04 10:10 | 46.09087 | 14.57496 | 4215 ft | 207 kts | 89° |
| 2026-05-04 10:10 | 46.09437 | 14.59442 | 4098 ft | 197 kts | 56° |
| 2026-05-04 10:11 | 46.10408 | 14.60628 | 4010 ft | 174 kts | 20° |
| 2026-05-04 10:11 | 46.11499 | 14.61112 | 3832 ft | 157 kts | 6° |
| 2026-05-04 10:11 | 46.12565 | 14.61230 | 3529 ft | 153 kts | 354° |
| 2026-05-04 10:11 | 46.13636 | 14.61192 | 3162 ft | 153 kts | 352° |
| 2026-05-04 10:12 | 46.14531 | 14.60607 | 2891 ft | 139 kts | 311° |
| 2026-05-04 10:12 | 46.15144 | 14.59557 | 2952 ft | 137 kts | 302° |
| 2026-05-04 10:12 | 46.15700 | 14.58467 | 2989 ft | 133 kts | 303° |
| 2026-05-04 10:12 | 46.16251 | 14.57406 | 2902 ft | 132 kts | 303° |
| 2026-05-04 10:13 | 46.16802 | 14.56359 | 2720 ft | 129 kts | 303° |
| 2026-05-04 10:13 | 46.17346 | 14.55322 | 2557 ft | 131 kts | 304° |
| 2026-05-04 10:13 | 46.17886 | 14.54289 | 2389 ft | 130 kts | 304° |
| 2026-05-04 10:13 | 46.18452 | 14.53257 | 2192 ft | 129 kts | 308° |
| 2026-05-04 10:14 | 46.19026 | 14.52240 | 2044 ft | 133 kts | 306° |
| 2026-05-04 10:14 | 46.19590 | 14.51183 | 1864 ft | 135 kts | 306° |
| 2026-05-04 10:16 | 46.22629 | 14.45395 | 1263 ft | 10 kts | 333° |
| 2026-05-04 10:16 | 46.22670 | 14.45369 | 1265 ft | 5 kts | 338° |
| 2026-05-04 10:16 | 46.22702 | 14.45353 | 1266 ft | 4 kts | 340° |
| 2026-05-04 10:16 | 46.22726 | 14.45341 | 1263 ft | 4 kts | 345° |
| 2026-05-04 10:17 | 46.22748 | 14.45334 | 1260 ft | 4 kts | 348° |
| 2026-05-04 10:17 | 46.22779 | 14.45327 | 1267 ft | 5 kts | 351° |
| 2026-05-04 10:19 | 46.22956 | 14.45492 | 1268 ft | 2 kts | 29° |
| 2026-05-04 10:19 | 46.22962 | 14.45498 | 1265 ft | 1 kts | 35° |
| 2026-05-04 10:19 | 46.22967 | 14.45504 | 1269 ft | 1 kts | 36° |
| 2026-05-04 10:19 | 46.22973 | 14.45510 | 1268 ft | 1 kts | 36° |
| 2026-05-04 10:20 | 46.22976 | 14.45514 | 1267 ft | 1 kts | 36° |
| 2026-05-04 10:20 | 46.22977 | 14.45514 | 1267 ft | 0 kts | 36° |